sensor_id;sensor_type;location;lat;lon;timestamp;temperature;humidity
15656;DHT22;7928;43.614;1.456;2023-07-31T00:01:58;21.50;99.90
15656;DHT22;7928;43.614;1.456;2023-07-31T00:04:25;21.50;99.90
15656;DHT22;7928;43.614;1.456;2023-07-31T00:06:53;21.40;99.90
15656;DHT22;7928;43.614;1.456;2023-07-31T00:09:20;21.40;99.90
15656;DHT22;7928;43.614;1.456;2023-07-31T00:11:47;21.30;99.90
15656;DHT22;7928;43.614;1.456;2023-07-31T00:14:14;21.30;99.90
15656;DHT22;7928;43.614;1.456;2023-07-31T00:16:41;21.40;99.90
15656;DHT22;7928;43.614;1.456;2023-07-31T00:19:08;21.40;99.90
15656;DHT22;7928;43.614;1.456;2023-07-31T00:21:35;21.30;99.90
15656;DHT22;7928;43.614;1.456;2023-07-31T00:24:04;21.20;99.90
15656;DHT22;7928;43.614;1.456;2023-07-31T00:26:31;21.20;99.90
15656;DHT22;7928;43.614;1.456;2023-07-31T00:28:58;21.10;99.90
15656;DHT22;7928;43.614;1.456;2023-07-31T00:31:24;21.10;99.90
15656;DHT22;7928;43.614;1.456;2023-07-31T00:33:52;21.00;99.90
15656;DHT22;7928;43.614;1.456;2023-07-31T00:36:19;21.00;99.90
15656;DHT22;7928;43.614;1.456;2023-07-31T00:38:46;21.00;99.90
15656;DHT22;7928;43.614;1.456;2023-07-31T00:41:14;21.00;99.90
15656;DHT22;7928;43.614;1.456;2023-07-31T00:43:41;21.00;99.90
15656;DHT22;7928;43.614;1.456;2023-07-31T00:46:08;21.00;99.90
15656;DHT22;7928;43.614;1.456;2023-07-31T00:48:35;20.90;99.90
15656;DHT22;7928;43.614;1.456;2023-07-31T00:51:03;20.90;99.90
15656;DHT22;7928;43.614;1.456;2023-07-31T00:53:31;20.80;99.90
15656;DHT22;7928;43.614;1.456;2023-07-31T00:55:58;20.80;99.90
15656;DHT22;7928;43.614;1.456;2023-07-31T00:58:27;20.80;99.90
15656;DHT22;7928;43.614;1.456;2023-07-31T01:00:54;20.80;99.90
15656;DHT22;7928;43.614;1.456;2023-07-31T01:03:21;20.80;99.90
15656;DHT22;7928;43.614;1.456;2023-07-31T01:05:56;20.70;99.90
15656;DHT22;7928;43.614;1.456;2023-07-31T01:08:32;20.60;99.90
15656;DHT22;7928;43.614;1.456;2023-07-31T01:11:05;20.60;99.90
15656;DHT22;7928;43.614;1.456;2023-07-31T01:13:35;20.60;99.90
15656;DHT22;7928;43.614;1.456;2023-07-31T01:16:03;20.60;99.90
15656;DHT22;7928;43.614;1.456;2023-07-31T01:18:30;20.30;99.90
15656;DHT22;7928;43.614;1.456;2023-07-31T01:21:03;20.50;99.90
15656;DHT22;7928;43.614;1.456;2023-07-31T01:23:57;20.40;99.90
15656;DHT22;7928;43.614;1.456;2023-07-31T01:26:34;20.30;99.90
15656;DHT22;7928;43.614;1.456;2023-07-31T01:29:07;20.30;99.90
15656;DHT22;7928;43.614;1.456;2023-07-31T01:31:36;20.30;99.90
15656;DHT22;7928;43.614;1.456;2023-07-31T01:34:05;20.30;99.90
15656;DHT22;7928;43.614;1.456;2023-07-31T01:36:33;20.30;99.90
15656;DHT22;7928;43.614;1.456;2023-07-31T01:39:00;20.20;99.90
15656;DHT22;7928;43.614;1.456;2023-07-31T01:41:28;20.20;99.90
15656;DHT22;7928;43.614;1.456;2023-07-31T01:43:56;20.20;99.90
15656;DHT22;7928;43.614;1.456;2023-07-31T01:46:23;20.10;99.90
15656;DHT22;7928;43.614;1.456;2023-07-31T01:48:50;20.20;99.90
15656;DHT22;7928;43.614;1.456;2023-07-31T01:51:17;20.10;99.90
15656;DHT22;7928;43.614;1.456;2023-07-31T01:53:44;20.10;99.90
15656;DHT22;7928;43.614;1.456;2023-07-31T01:56:11;20.10;99.90
15656;DHT22;7928;43.614;1.456;2023-07-31T01:58:38;20.10;99.90
15656;DHT22;7928;43.614;1.456;2023-07-31T02:01:06;20.10;99.90
15656;DHT22;7928;43.614;1.456;2023-07-31T02:03:33;20.00;99.90
15656;DHT22;7928;43.614;1.456;2023-07-31T02:06:00;20.00;99.90
15656;DHT22;7928;43.614;1.456;2023-07-31T02:08:27;19.90;99.90
15656;DHT22;7928;43.614;1.456;2023-07-31T02:10:54;19.80;99.90
15656;DHT22;7928;43.614;1.456;2023-07-31T02:13:21;19.80;99.90
15656;DHT22;7928;43.614;1.456;2023-07-31T02:15:48;19.80;99.90
15656;DHT22;7928;43.614;1.456;2023-07-31T02:18:17;19.80;99.90
15656;DHT22;7928;43.614;1.456;2023-07-31T02:20:49;19.70;99.90
15656;DHT22;7928;43.614;1.456;2023-07-31T02:23:16;19.70;99.90
15656;DHT22;7928;43.614;1.456;2023-07-31T02:25:43;19.70;99.90
15656;DHT22;7928;43.614;1.456;2023-07-31T02:28:10;19.70;99.90
15656;DHT22;7928;43.614;1.456;2023-07-31T02:30:37;19.70;99.90
15656;DHT22;7928;43.614;1.456;2023-07-31T02:33:05;19.60;99.90
15656;DHT22;7928;43.614;1.456;2023-07-31T02:35:33;19.60;99.90
15656;DHT22;7928;43.614;1.456;2023-07-31T02:38:00;19.60;99.90
15656;DHT22;7928;43.614;1.456;2023-07-31T02:40:27;19.60;99.90
15656;DHT22;7928;43.614;1.456;2023-07-31T02:42:54;19.60;99.90
15656;DHT22;7928;43.614;1.456;2023-07-31T02:45:21;19.50;99.90
15656;DHT22;7928;43.614;1.456;2023-07-31T02:47:48;19.50;99.90
15656;DHT22;7928;43.614;1.456;2023-07-31T02:50:15;19.50;99.90
15656;DHT22;7928;43.614;1.456;2023-07-31T02:52:43;19.40;99.90
15656;DHT22;7928;43.614;1.456;2023-07-31T02:55:10;19.40;99.90
15656;DHT22;7928;43.614;1.456;2023-07-31T02:57:37;19.40;99.90
15656;DHT22;7928;43.614;1.456;2023-07-31T03:00:06;19.40;99.90
15656;DHT22;7928;43.614;1.456;2023-07-31T03:02:33;19.40;99.90
15656;DHT22;7928;43.614;1.456;2023-07-31T03:05:00;19.40;99.90
15656;DHT22;7928;43.614;1.456;2023-07-31T03:07:27;19.40;99.90
15656;DHT22;7928;43.614;1.456;2023-07-31T03:09:55;19.40;99.90
15656;DHT22;7928;43.614;1.456;2023-07-31T03:12:22;19.40;99.90
15656;DHT22;7928;43.614;1.456;2023-07-31T03:14:49;19.40;99.90
15656;DHT22;7928;43.614;1.456;2023-07-31T03:17:16;19.30;99.90
15656;DHT22;7928;43.614;1.456;2023-07-31T03:19:43;19.30;99.90
15656;DHT22;7928;43.614;1.456;2023-07-31T03:22:10;19.20;99.90
15656;DHT22;7928;43.614;1.456;2023-07-31T03:24:37;19.20;99.90
15656;DHT22;7928;43.614;1.456;2023-07-31T03:27:06;19.20;99.90
15656;DHT22;7928;43.614;1.456;2023-07-31T03:29:33;19.20;99.90
15656;DHT22;7928;43.614;1.456;2023-07-31T03:32:00;19.20;99.90
15656;DHT22;7928;43.614;1.456;2023-07-31T03:34:27;19.30;99.90
15656;DHT22;7928;43.614;1.456;2023-07-31T03:36:54;19.30;99.90
15656;DHT22;7928;43.614;1.456;2023-07-31T03:39:21;19.20;99.90
15656;DHT22;7928;43.614;1.456;2023-07-31T03:41:48;19.20;99.90
15656;DHT22;7928;43.614;1.456;2023-07-31T03:44:16;19.20;99.90
15656;DHT22;7928;43.614;1.456;2023-07-31T03:46:43;19.20;99.90
15656;DHT22;7928;43.614;1.456;2023-07-31T03:49:10;19.10;99.90
15656;DHT22;7928;43.614;1.456;2023-07-31T03:51:37;19.10;99.90
15656;DHT22;7928;43.614;1.456;2023-07-31T03:54:04;19.10;99.90
15656;DHT22;7928;43.614;1.456;2023-07-31T03:56:33;19.00;99.90
15656;DHT22;7928;43.614;1.456;2023-07-31T03:59:00;19.00;99.90
15656;DHT22;7928;43.614;1.456;2023-07-31T04:01:28;19.00;99.90
15656;DHT22;7928;43.614;1.456;2023-07-31T04:03:55;19.00;99.90
15656;DHT22;7928;43.614;1.456;2023-07-31T04:06:22;19.00;99.90
15656;DHT22;7928;43.614;1.456;2023-07-31T04:08:49;18.90;99.90
15656;DHT22;7928;43.614;1.456;2023-07-31T04:11:16;18.80;99.90
15656;DHT22;7928;43.614;1.456;2023-07-31T04:13:43;18.70;99.90
15656;DHT22;7928;43.614;1.456;2023-07-31T04:16:10;18.70;99.90
15656;DHT22;7928;43.614;1.456;2023-07-31T04:18:38;18.80;99.90
15656;DHT22;7928;43.614;1.456;2023-07-31T04:21:05;18.80;99.90
15656;DHT22;7928;43.614;1.456;2023-07-31T04:23:32;18.80;99.90
15656;DHT22;7928;43.614;1.456;2023-07-31T04:25:59;18.80;99.90
15656;DHT22;7928;43.614;1.456;2023-07-31T04:28:26;18.80;99.90
15656;DHT22;7928;43.614;1.456;2023-07-31T04:30:53;18.80;99.90
15656;DHT22;7928;43.614;1.456;2023-07-31T04:33:20;18.70;99.90
15656;DHT22;7928;43.614;1.456;2023-07-31T04:35:53;18.70;99.90
15656;DHT22;7928;43.614;1.456;2023-07-31T04:38:20;18.70;99.90
15656;DHT22;7928;43.614;1.456;2023-07-31T04:40:47;18.60;99.90
15656;DHT22;7928;43.614;1.456;2023-07-31T04:43:14;18.60;99.90
15656;DHT22;7928;43.614;1.456;2023-07-31T04:45:44;18.60;99.90
15656;DHT22;7928;43.614;1.456;2023-07-31T04:48:12;18.50;99.90
15656;DHT22;7928;43.614;1.456;2023-07-31T04:50:39;18.50;99.90
15656;DHT22;7928;43.614;1.456;2023-07-31T04:53:08;18.50;99.90
15656;DHT22;7928;43.614;1.456;2023-07-31T04:55:35;18.50;99.90
15656;DHT22;7928;43.614;1.456;2023-07-31T04:58:02;18.60;99.90
15656;DHT22;7928;43.614;1.456;2023-07-31T05:00:29;18.60;99.90
15656;DHT22;7928;43.614;1.456;2023-07-31T05:02:56;18.50;99.90
15656;DHT22;7928;43.614;1.456;2023-07-31T05:05:23;18.60;99.90
15656;DHT22;7928;43.614;1.456;2023-07-31T05:07:50;18.60;99.90
15656;DHT22;7928;43.614;1.456;2023-07-31T05:10:18;18.70;99.90
15656;DHT22;7928;43.614;1.456;2023-07-31T05:12:45;18.70;99.90
15656;DHT22;7928;43.614;1.456;2023-07-31T05:15:12;18.70;99.90
15656;DHT22;7928;43.614;1.456;2023-07-31T05:17:39;18.70;99.90
15656;DHT22;7928;43.614;1.456;2023-07-31T05:20:07;18.60;99.90
15656;DHT22;7928;43.614;1.456;2023-07-31T05:22:34;18.70;99.90
15656;DHT22;7928;43.614;1.456;2023-07-31T05:25:01;18.70;99.90
15656;DHT22;7928;43.614;1.456;2023-07-31T05:27:30;18.80;99.90
15656;DHT22;7928;43.614;1.456;2023-07-31T05:29:57;18.90;99.90
15656;DHT22;7928;43.614;1.456;2023-07-31T05:32:24;19.00;99.90
15656;DHT22;7928;43.614;1.456;2023-07-31T05:34:51;18.80;99.90
15656;DHT22;7928;43.614;1.456;2023-07-31T05:37:18;18.80;99.90
15656;DHT22;7928;43.614;1.456;2023-07-31T05:39:45;18.80;99.90
15656;DHT22;7928;43.614;1.456;2023-07-31T05:42:12;18.80;99.90
15656;DHT22;7928;43.614;1.456;2023-07-31T05:44:41;18.80;99.90
15656;DHT22;7928;43.614;1.456;2023-07-31T05:47:08;19.00;99.90
15656;DHT22;7928;43.614;1.456;2023-07-31T05:49:34;19.10;99.90
15656;DHT22;7928;43.614;1.456;2023-07-31T05:52:02;19.10;99.90
15656;DHT22;7928;43.614;1.456;2023-07-31T05:54:29;19.10;99.90
15656;DHT22;7928;43.614;1.456;2023-07-31T05:56:56;19.10;99.90
15656;DHT22;7928;43.614;1.456;2023-07-31T05:59:23;19.10;99.90
15656;DHT22;7928;43.614;1.456;2023-07-31T06:01:52;19.20;99.90
15656;DHT22;7928;43.614;1.456;2023-07-31T06:04:19;19.30;99.90
15656;DHT22;7928;43.614;1.456;2023-07-31T06:06:46;19.30;99.90
15656;DHT22;7928;43.614;1.456;2023-07-31T06:09:13;19.30;99.90
15656;DHT22;7928;43.614;1.456;2023-07-31T06:11:40;19.40;99.90
15656;DHT22;7928;43.614;1.456;2023-07-31T06:14:07;19.40;99.90
15656;DHT22;7928;43.614;1.456;2023-07-31T06:16:34;19.50;99.90
15656;DHT22;7928;43.614;1.456;2023-07-31T06:19:03;19.40;99.90
15656;DHT22;7928;43.614;1.456;2023-07-31T06:21:30;19.40;99.90
15656;DHT22;7928;43.614;1.456;2023-07-31T06:23:57;19.60;99.90
15656;DHT22;7928;43.614;1.456;2023-07-31T06:26:24;19.50;99.90
15656;DHT22;7928;43.614;1.456;2023-07-31T06:28:51;19.50;99.90
15656;DHT22;7928;43.614;1.456;2023-07-31T06:31:18;19.50;99.90
15656;DHT22;7928;43.614;1.456;2023-07-31T06:33:48;19.50;99.90
15656;DHT22;7928;43.614;1.456;2023-07-31T06:36:16;19.60;99.90
15656;DHT22;7928;43.614;1.456;2023-07-31T06:38:43;19.50;99.90
15656;DHT22;7928;43.614;1.456;2023-07-31T06:41:10;19.50;99.90
15656;DHT22;7928;43.614;1.456;2023-07-31T06:43:37;19.70;99.90
15656;DHT22;7928;43.614;1.456;2023-07-31T06:46:05;19.80;99.90
15656;DHT22;7928;43.614;1.456;2023-07-31T06:48:32;19.90;99.90
15656;DHT22;7928;43.614;1.456;2023-07-31T06:50:59;19.80;99.90
15656;DHT22;7928;43.614;1.456;2023-07-31T06:53:28;19.90;99.90
15656;DHT22;7928;43.614;1.456;2023-07-31T06:55:55;20.10;99.90
15656;DHT22;7928;43.614;1.456;2023-07-31T06:58:22;20.00;99.90
15656;DHT22;7928;43.614;1.456;2023-07-31T07:00:49;20.10;99.90
15656;DHT22;7928;43.614;1.456;2023-07-31T07:03:18;20.20;99.90
15656;DHT22;7928;43.614;1.456;2023-07-31T07:05:46;20.20;99.90
15656;DHT22;7928;43.614;1.456;2023-07-31T07:08:12;20.20;99.90
15656;DHT22;7928;43.614;1.456;2023-07-31T07:10:41;20.20;99.90
15656;DHT22;7928;43.614;1.456;2023-07-31T07:13:08;20.20;99.90
15656;DHT22;7928;43.614;1.456;2023-07-31T07:15:35;20.30;99.90
15656;DHT22;7928;43.614;1.456;2023-07-31T07:18:02;20.20;99.90
15656;DHT22;7928;43.614;1.456;2023-07-31T07:20:30;20.40;99.90
15656;DHT22;7928;43.614;1.456;2023-07-31T07:22:56;20.50;99.90
15656;DHT22;7928;43.614;1.456;2023-07-31T07:25:24;20.50;99.90
15656;DHT22;7928;43.614;1.456;2023-07-31T07:27:52;20.60;99.90
15656;DHT22;7928;43.614;1.456;2023-07-31T07:30:19;20.60;99.90
15656;DHT22;7928;43.614;1.456;2023-07-31T07:32:46;20.70;99.90
15656;DHT22;7928;43.614;1.456;2023-07-31T07:35:13;20.80;99.90
15656;DHT22;7928;43.614;1.456;2023-07-31T07:37:40;20.70;99.90
15656;DHT22;7928;43.614;1.456;2023-07-31T07:40:08;20.80;99.90
15656;DHT22;7928;43.614;1.456;2023-07-31T07:42:35;20.90;99.90
15656;DHT22;7928;43.614;1.456;2023-07-31T07:45:05;21.10;99.90
15656;DHT22;7928;43.614;1.456;2023-07-31T07:47:32;21.20;99.90
15656;DHT22;7928;43.614;1.456;2023-07-31T07:49:59;21.20;99.90
15656;DHT22;7928;43.614;1.456;2023-07-31T07:52:26;21.20;99.90
15656;DHT22;7928;43.614;1.456;2023-07-31T07:54:53;21.30;99.90
15656;DHT22;7928;43.614;1.456;2023-07-31T07:57:20;21.40;99.90
15656;DHT22;7928;43.614;1.456;2023-07-31T07:59:47;21.40;99.90
15656;DHT22;7928;43.614;1.456;2023-07-31T08:02:15;21.60;99.90
15656;DHT22;7928;43.614;1.456;2023-07-31T08:04:42;21.40;99.90
15656;DHT22;7928;43.614;1.456;2023-07-31T08:07:11;21.50;99.90
15656;DHT22;7928;43.614;1.456;2023-07-31T08:09:38;21.50;99.90
15656;DHT22;7928;43.614;1.456;2023-07-31T08:12:05;21.60;99.90
15656;DHT22;7928;43.614;1.456;2023-07-31T08:14:33;21.70;99.90
15656;DHT22;7928;43.614;1.456;2023-07-31T08:17:00;21.80;99.90
15656;DHT22;7928;43.614;1.456;2023-07-31T08:19:28;22.00;99.90
15656;DHT22;7928;43.614;1.456;2023-07-31T08:21:55;22.00;99.90
15656;DHT22;7928;43.614;1.456;2023-07-31T08:24:22;22.00;99.90
15656;DHT22;7928;43.614;1.456;2023-07-31T08:26:49;22.00;99.90
15656;DHT22;7928;43.614;1.456;2023-07-31T08:29:16;22.10;99.90
15656;DHT22;7928;43.614;1.456;2023-07-31T08:31:43;22.20;99.90
15656;DHT22;7928;43.614;1.456;2023-07-31T08:34:10;22.30;99.90
15656;DHT22;7928;43.614;1.456;2023-07-31T08:36:38;22.40;99.90
15656;DHT22;7928;43.614;1.456;2023-07-31T08:39:05;22.40;99.90
15656;DHT22;7928;43.614;1.456;2023-07-31T08:41:37;22.50;99.90
15656;DHT22;7928;43.614;1.456;2023-07-31T08:44:05;22.70;99.90
15656;DHT22;7928;43.614;1.456;2023-07-31T08:46:32;22.60;99.90
15656;DHT22;7928;43.614;1.456;2023-07-31T08:49:00;22.80;99.90
15656;DHT22;7928;43.614;1.456;2023-07-31T08:51:30;22.70;99.90
15656;DHT22;7928;43.614;1.456;2023-07-31T08:53:59;22.70;99.90
15656;DHT22;7928;43.614;1.456;2023-07-31T08:56:26;22.80;99.90
15656;DHT22;7928;43.614;1.456;2023-07-31T08:58:54;22.90;99.90
15656;DHT22;7928;43.614;1.456;2023-07-31T09:01:22;22.90;99.90
15656;DHT22;7928;43.614;1.456;2023-07-31T09:03:51;23.10;99.90
15656;DHT22;7928;43.614;1.456;2023-07-31T09:06:18;23.10;99.90
15656;DHT22;7928;43.614;1.456;2023-07-31T09:08:49;23.10;99.90
15656;DHT22;7928;43.614;1.456;2023-07-31T09:11:18;23.30;99.90
15656;DHT22;7928;43.614;1.456;2023-07-31T09:13:48;23.30;99.90
15656;DHT22;7928;43.614;1.456;2023-07-31T09:16:16;23.50;99.90
15656;DHT22;7928;43.614;1.456;2023-07-31T09:18:53;23.60;99.90
15656;DHT22;7928;43.614;1.456;2023-07-31T09:21:20;23.50;99.90
15656;DHT22;7928;43.614;1.456;2023-07-31T09:23:48;23.70;99.90
15656;DHT22;7928;43.614;1.456;2023-07-31T09:26:31;23.90;99.90
15656;DHT22;7928;43.614;1.456;2023-07-31T09:28:58;24.00;99.90
15656;DHT22;7928;43.614;1.456;2023-07-31T09:31:38;24.00;99.90
15656;DHT22;7928;43.614;1.456;2023-07-31T09:34:06;24.10;99.90
15656;DHT22;7928;43.614;1.456;2023-07-31T09:36:40;24.20;99.90
15656;DHT22;7928;43.614;1.456;2023-07-31T09:39:09;24.40;99.90
15656;DHT22;7928;43.614;1.456;2023-07-31T09:41:38;24.50;99.90
15656;DHT22;7928;43.614;1.456;2023-07-31T09:44:05;24.40;99.90
15656;DHT22;7928;43.614;1.456;2023-07-31T09:46:32;24.50;99.90
15656;DHT22;7928;43.614;1.456;2023-07-31T09:49:05;24.50;99.90
15656;DHT22;7928;43.614;1.456;2023-07-31T09:51:32;24.80;99.90
15656;DHT22;7928;43.614;1.456;2023-07-31T09:54:08;24.80;99.90
15656;DHT22;7928;43.614;1.456;2023-07-31T09:56:41;24.90;99.90
15656;DHT22;7928;43.614;1.456;2023-07-31T09:59:11;25.00;99.90
15656;DHT22;7928;43.614;1.456;2023-07-31T10:01:40;25.20;99.90
15656;DHT22;7928;43.614;1.456;2023-07-31T10:04:08;25.20;99.90
15656;DHT22;7928;43.614;1.456;2023-07-31T10:06:36;25.50;99.90
15656;DHT22;7928;43.614;1.456;2023-07-31T10:09:06;25.70;99.90
15656;DHT22;7928;43.614;1.456;2023-07-31T10:11:38;25.60;99.90
15656;DHT22;7928;43.614;1.456;2023-07-31T10:14:10;25.70;99.90
15656;DHT22;7928;43.614;1.456;2023-07-31T10:16:38;25.70;99.90
15656;DHT22;7928;43.614;1.456;2023-07-31T10:19:06;26.00;99.90
15656;DHT22;7928;43.614;1.456;2023-07-31T10:21:34;26.10;99.90
15656;DHT22;7928;43.614;1.456;2023-07-31T10:24:04;26.20;99.90
15656;DHT22;7928;43.614;1.456;2023-07-31T10:26:31;26.20;99.80
15656;DHT22;7928;43.614;1.456;2023-07-31T10:29:00;26.20;99.50
15656;DHT22;7928;43.614;1.456;2023-07-31T10:31:28;26.10;99.60
15656;DHT22;7928;43.614;1.456;2023-07-31T10:33:56;26.00;99.50
15656;DHT22;7928;43.614;1.456;2023-07-31T10:36:24;26.00;99.50
15656;DHT22;7928;43.614;1.456;2023-07-31T10:38:51;26.20;99.30
15656;DHT22;7928;43.614;1.456;2023-07-31T10:41:18;26.60;99.10
15656;DHT22;7928;43.614;1.456;2023-07-31T10:43:46;26.80;99.00
15656;DHT22;7928;43.614;1.456;2023-07-31T10:46:15;27.00;98.70
15656;DHT22;7928;43.614;1.456;2023-07-31T10:48:42;27.20;98.20
15656;DHT22;7928;43.614;1.456;2023-07-31T10:51:11;27.50;98.00
15656;DHT22;7928;43.614;1.456;2023-07-31T10:53:39;27.50;97.20
15656;DHT22;7928;43.614;1.456;2023-07-31T10:56:08;27.60;96.90
15656;DHT22;7928;43.614;1.456;2023-07-31T10:58:38;27.50;97.10
15656;DHT22;7928;43.614;1.456;2023-07-31T11:01:06;27.80;96.90
15656;DHT22;7928;43.614;1.456;2023-07-31T11:03:45;28.10;96.60
15656;DHT22;7928;43.614;1.456;2023-07-31T11:06:13;28.50;96.00
15656;DHT22;7928;43.614;1.456;2023-07-31T11:08:44;29.00;95.80
15656;DHT22;7928;43.614;1.456;2023-07-31T11:11:12;29.60;95.20
15656;DHT22;7928;43.614;1.456;2023-07-31T11:13:41;29.80;94.20
15656;DHT22;7928;43.614;1.456;2023-07-31T11:16:08;29.70;94.20
15656;DHT22;7928;43.614;1.456;2023-07-31T11:18:37;30.10;93.90
15656;DHT22;7928;43.614;1.456;2023-07-31T11:21:06;30.90;93.20
15656;DHT22;7928;43.614;1.456;2023-07-31T11:23:33;31.40;92.20
15656;DHT22;7928;43.614;1.456;2023-07-31T11:26:00;32.00;91.80
15656;DHT22;7928;43.614;1.456;2023-07-31T11:28:31;32.80;90.60
15656;DHT22;7928;43.614;1.456;2023-07-31T11:30:59;32.90;89.70
15656;DHT22;7928;43.614;1.456;2023-07-31T11:33:26;33.30;89.00
15656;DHT22;7928;43.614;1.456;2023-07-31T11:35:53;33.20;87.30
15656;DHT22;7928;43.614;1.456;2023-07-31T11:38:26;32.80;87.00
15656;DHT22;7928;43.614;1.456;2023-07-31T11:40:53;32.70;86.40
15656;DHT22;7928;43.614;1.456;2023-07-31T11:43:21;33.30;84.40
15656;DHT22;7928;43.614;1.456;2023-07-31T11:45:51;33.50;83.70
15656;DHT22;7928;43.614;1.456;2023-07-31T11:48:23;34.20;83.20
15656;DHT22;7928;43.614;1.456;2023-07-31T11:50:51;34.10;81.80
15656;DHT22;7928;43.614;1.456;2023-07-31T11:53:21;34.30;82.00
15656;DHT22;7928;43.614;1.456;2023-07-31T11:55:52;34.30;80.60
15656;DHT22;7928;43.614;1.456;2023-07-31T11:58:20;34.30;80.60
15656;DHT22;7928;43.614;1.456;2023-07-31T12:00:48;33.90;79.60
15656;DHT22;7928;43.614;1.456;2023-07-31T12:03:16;33.50;80.50
15656;DHT22;7928;43.614;1.456;2023-07-31T12:05:43;33.80;80.80
15656;DHT22;7928;43.614;1.456;2023-07-31T12:08:10;34.70;81.00
15656;DHT22;7928;43.614;1.456;2023-07-31T12:10:38;35.30;77.10
15656;DHT22;7928;43.614;1.456;2023-07-31T12:13:09;35.40;77.60
15656;DHT22;7928;43.614;1.456;2023-07-31T12:15:40;35.40;75.60
15656;DHT22;7928;43.614;1.456;2023-07-31T12:18:10;34.70;76.80
15656;DHT22;7928;43.614;1.456;2023-07-31T12:20:41;35.40;76.60
15656;DHT22;7928;43.614;1.456;2023-07-31T12:23:17;36.00;75.20
15656;DHT22;7928;43.614;1.456;2023-07-31T12:25:44;35.90;74.50
15656;DHT22;7928;43.614;1.456;2023-07-31T12:28:12;36.20;74.00
15656;DHT22;7928;43.614;1.456;2023-07-31T12:30:40;36.50;73.40
15656;DHT22;7928;43.614;1.456;2023-07-31T12:33:12;36.20;73.60
15656;DHT22;7928;43.614;1.456;2023-07-31T12:35:43;37.00;73.50
15656;DHT22;7928;43.614;1.456;2023-07-31T12:38:11;36.90;71.10
15656;DHT22;7928;43.614;1.456;2023-07-31T12:40:38;37.30;70.10
15656;DHT22;7928;43.614;1.456;2023-07-31T12:43:06;36.30;70.30
15656;DHT22;7928;43.614;1.456;2023-07-31T12:45:35;35.70;71.00
15656;DHT22;7928;43.614;1.456;2023-07-31T12:48:03;36.60;70.70
15656;DHT22;7928;43.614;1.456;2023-07-31T12:50:30;36.80;70.20
15656;DHT22;7928;43.614;1.456;2023-07-31T12:52:57;36.60;70.80
15656;DHT22;7928;43.614;1.456;2023-07-31T12:55:24;37.10;69.90
15656;DHT22;7928;43.614;1.456;2023-07-31T12:57:51;37.20;68.30
15656;DHT22;7928;43.614;1.456;2023-07-31T13:00:18;37.00;69.00
15656;DHT22;7928;43.614;1.456;2023-07-31T13:02:47;37.80;69.10
15656;DHT22;7928;43.614;1.456;2023-07-31T13:05:14;38.50;67.70
15656;DHT22;7928;43.614;1.456;2023-07-31T13:07:41;38.90;67.60
15656;DHT22;7928;43.614;1.456;2023-07-31T13:10:09;38.30;67.30
15656;DHT22;7928;43.614;1.456;2023-07-31T13:12:36;38.40;67.10
15656;DHT22;7928;43.614;1.456;2023-07-31T13:15:03;38.10;66.70
15656;DHT22;7928;43.614;1.456;2023-07-31T13:17:30;38.50;66.20
15656;DHT22;7928;43.614;1.456;2023-07-31T13:19:59;38.60;66.10
15656;DHT22;7928;43.614;1.456;2023-07-31T13:22:26;37.50;66.10
15656;DHT22;7928;43.614;1.456;2023-07-31T13:24:53;37.00;65.40
15656;DHT22;7928;43.614;1.456;2023-07-31T13:27:20;37.30;65.30
15656;DHT22;7928;43.614;1.456;2023-07-31T13:29:47;37.40;65.20
15656;DHT22;7928;43.614;1.456;2023-07-31T13:32:16;36.90;65.10
15656;DHT22;7928;43.614;1.456;2023-07-31T13:34:43;36.80;65.70
15656;DHT22;7928;43.614;1.456;2023-07-31T13:37:11;36.80;66.10
15656;DHT22;7928;43.614;1.456;2023-07-31T13:39:38;36.80;65.10
15656;DHT22;7928;43.614;1.456;2023-07-31T13:42:07;37.60;66.50
15656;DHT22;7928;43.614;1.456;2023-07-31T13:44:34;39.00;65.30
15656;DHT22;7928;43.614;1.456;2023-07-31T13:47:01;39.90;63.10
15656;DHT22;7928;43.614;1.456;2023-07-31T13:49:29;39.30;62.10
15656;DHT22;7928;43.614;1.456;2023-07-31T13:51:56;38.60;62.50
15656;DHT22;7928;43.614;1.456;2023-07-31T13:54:25;37.80;62.90
15656;DHT22;7928;43.614;1.456;2023-07-31T13:56:52;38.00;62.80
15656;DHT22;7928;43.614;1.456;2023-07-31T13:59:19;38.10;60.80
15656;DHT22;7928;43.614;1.456;2023-07-31T14:01:47;37.30;62.00
15656;DHT22;7928;43.614;1.456;2023-07-31T14:04:14;37.20;60.50
15656;DHT22;7928;43.614;1.456;2023-07-31T14:06:41;36.70;60.50
15656;DHT22;7928;43.614;1.456;2023-07-31T14:09:08;36.60;61.00
15656;DHT22;7928;43.614;1.456;2023-07-31T14:11:36;37.30;61.80
15656;DHT22;7928;43.614;1.456;2023-07-31T14:14:03;37.40;60.70
15656;DHT22;7928;43.614;1.456;2023-07-31T14:16:30;37.20;61.10
15656;DHT22;7928;43.614;1.456;2023-07-31T14:18:57;38.00;61.10
15656;DHT22;7928;43.614;1.456;2023-07-31T14:21:25;37.10;59.70
15656;DHT22;7928;43.614;1.456;2023-07-31T14:23:52;37.20;60.50
15656;DHT22;7928;43.614;1.456;2023-07-31T14:26:19;37.80;60.20
15656;DHT22;7928;43.614;1.456;2023-07-31T14:28:48;38.10;59.10
15656;DHT22;7928;43.614;1.456;2023-07-31T14:31:15;38.20;59.80
15656;DHT22;7928;43.614;1.456;2023-07-31T14:33:42;37.50;60.50
15656;DHT22;7928;43.614;1.456;2023-07-31T14:36:09;37.50;60.40
15656;DHT22;7928;43.614;1.456;2023-07-31T14:38:36;37.90;60.60
15656;DHT22;7928;43.614;1.456;2023-07-31T14:41:03;37.40;60.30
15656;DHT22;7928;43.614;1.456;2023-07-31T14:43:30;36.50;62.20
15656;DHT22;7928;43.614;1.456;2023-07-31T14:45:58;36.80;62.70
15656;DHT22;7928;43.614;1.456;2023-07-31T14:48:25;37.80;61.10
15656;DHT22;7928;43.614;1.456;2023-07-31T14:50:53;36.20;61.20
15656;DHT22;7928;43.614;1.456;2023-07-31T14:53:20;36.70;61.50
15656;DHT22;7928;43.614;1.456;2023-07-31T14:55:47;36.80;62.10
15656;DHT22;7928;43.614;1.456;2023-07-31T14:58:14;37.60;62.10
15656;DHT22;7928;43.614;1.456;2023-07-31T15:00:42;37.70;61.40
15656;DHT22;7928;43.614;1.456;2023-07-31T15:03:11;37.50;61.00
15656;DHT22;7928;43.614;1.456;2023-07-31T15:05:38;37.70;61.10
15656;DHT22;7928;43.614;1.456;2023-07-31T15:08:05;37.40;60.00
15656;DHT22;7928;43.614;1.456;2023-07-31T15:10:32;37.80;61.20
15656;DHT22;7928;43.614;1.456;2023-07-31T15:12:59;38.20;60.20
15656;DHT22;7928;43.614;1.456;2023-07-31T15:15:27;37.80;61.20
15656;DHT22;7928;43.614;1.456;2023-07-31T15:17:54;38.30;61.00
15656;DHT22;7928;43.614;1.456;2023-07-31T15:20:23;38.90;59.70
15656;DHT22;7928;43.614;1.456;2023-07-31T15:22:50;39.20;59.20
15656;DHT22;7928;43.614;1.456;2023-07-31T15:25:17;39.20;58.00
15656;DHT22;7928;43.614;1.456;2023-07-31T15:27:44;38.80;58.60
15656;DHT22;7928;43.614;1.456;2023-07-31T15:30:11;38.10;58.90
15656;DHT22;7928;43.614;1.456;2023-07-31T15:32:38;38.00;59.80
15656;DHT22;7928;43.614;1.456;2023-07-31T15:35:06;38.40;59.40
15656;DHT22;7928;43.614;1.456;2023-07-31T15:37:34;37.80;60.00
15656;DHT22;7928;43.614;1.456;2023-07-31T15:40:02;37.80;59.90
15656;DHT22;7928;43.614;1.456;2023-07-31T15:42:29;38.50;58.90
15656;DHT22;7928;43.614;1.456;2023-07-31T15:44:59;38.60;58.80
15656;DHT22;7928;43.614;1.456;2023-07-31T15:47:26;38.30;59.30
15656;DHT22;7928;43.614;1.456;2023-07-31T15:49:53;38.00;59.30